Check out our new PWSWeather beta!
PWSweather.com
Personal Weather Stations
Station Observations

YeovilGB

Lat: 50.949, Lon: -2.627

Elevation: 70

Station Type: Vantage Pro

http://www.yeovil-weather.me.uk/

High Low Average
Temperature 48.9°F9.4°C 35.5°F1.9°C 42.9°F6.1°C
Dew Point 43.4°F6.3°C 34.1°F1.2°C 39.8°F4.3°C
Winds 9.2 mph 14.8 kmh Calm Calm 1.0 mph SW1.6 kmh SW
Wind Gusts 13.8 mph22.2 kmh -- 3.0 mph4.8 kmh
Humidity 95% 73% 89%
Pressure 29.64 in1003.7 mb 29.19 in988.5 mb -
Precipitation 0.33 in8.4 mm - -
Hour Temp Dew Point Humidity Winds Wind Gusts Pressure Precip Precip Rate Daily Precip Total
12:00 AM 43.8°F6.6°C 40.8°F4.9°C 89% Calm Calm -- 29.64 in1003.7 mb - 0.00 in0.0 mm 0.00 in0.0 mm
12:10 AM 43.7°F6.5°C 40.7°F4.8°C 89% Calm Calm 2.3 mph3.7 kmh 29.64 in1003.7 mb - 0.00 in0.0 mm 0.00 in0.0 mm
12:20 AM 43.6°F6.4°C 40.6°F4.8°C 89% 1.2 mph W1.9 kmh W 3.5 mph5.6 kmh 29.64 in1003.7 mb - 0.00 in0.0 mm 0.00 in0.0 mm
12:30 AM 43.4°F6.3°C 40.4°F4.7°C 89% Calm Calm -- 29.64 in1003.7 mb - 0.00 in0.0 mm 0.00 in0.0 mm
12:40 AM 43.3°F6.3°C 40.3°F4.6°C 89% Calm Calm -- 29.64 in1003.7 mb - 0.00 in0.0 mm 0.00 in0.0 mm
12:50 AM 43.2°F6.2°C 40.2°F4.6°C 89% Calm Calm -- 29.64 in1003.7 mb - 0.00 in0.0 mm 0.00 in0.0 mm
01:00 AM 42.8°F6.0°C 39.5°F4.2°C 88% Calm Calm -- 29.64 in1003.7 mb - 0.00 in0.0 mm 0.00 in0.0 mm
01:10 AM 42.4°F5.8°C 39.4°F4.1°C 89% 1.2 mph WNW1.9 kmh WNW 3.5 mph5.6 kmh 29.64 in1003.7 mb - 0.00 in0.0 mm 0.00 in0.0 mm
01:20 AM 42.3°F5.7°C 39.6°F4.2°C 90% Calm Calm -- 29.64 in1003.7 mb - 0.00 in0.0 mm 0.00 in0.0 mm
01:30 AM 42.2°F5.7°C 39.5°F4.2°C 90% Calm Calm -- 29.64 in1003.7 mb - 0.00 in0.0 mm 0.00 in0.0 mm
01:40 AM 42.4°F5.8°C 40.0°F4.4°C 91% 1.2 mph NW1.9 kmh NW 5.8 mph9.3 kmh 29.63 in1003.4 mb - 0.00 in0.0 mm 0.00 in0.0 mm
01:50 AM 42.9°F6.1°C 40.5°F4.7°C 91% Calm Calm 3.5 mph5.6 kmh 29.63 in1003.4 mb - 0.00 in0.0 mm 0.00 in0.0 mm
02:00 AM 43.1°F6.2°C 40.7°F4.8°C 91% Calm Calm -- 29.63 in1003.4 mb - 0.00 in0.0 mm 0.00 in0.0 mm
02:10 AM 43.0°F6.1°C 40.3°F4.6°C 90% Calm Calm -- 29.63 in1003.4 mb - 0.00 in0.0 mm 0.00 in0.0 mm
02:20 AM 43.1°F6.2°C 40.4°F4.7°C 90% Calm Calm 2.3 mph3.7 kmh 29.63 in1003.4 mb - 0.00 in0.0 mm 0.00 in0.0 mm
02:30 AM 42.9°F6.1°C 40.2°F4.6°C 90% Calm Calm -- 29.63 in1003.4 mb - 0.00 in0.0 mm 0.00 in0.0 mm
02:40 AM 42.6°F5.9°C 39.9°F4.4°C 90% 1.2 mph SW1.9 kmh SW 1.2 mph1.9 kmh 29.63 in1003.4 mb - 0.00 in0.0 mm 0.00 in0.0 mm
02:50 AM 42.5°F5.8°C 39.8°F4.3°C 90% 1.2 mph W1.9 kmh W 3.5 mph5.6 kmh 29.63 in1003.4 mb - 0.00 in0.0 mm 0.00 in0.0 mm
03:00 AM 42.6°F5.9°C 40.2°F4.6°C 91% Calm Calm 3.5 mph5.6 kmh 29.63 in1003.4 mb - 0.00 in0.0 mm 0.00 in0.0 mm
03:10 AM 42.6°F5.9°C 40.1°F4.5°C 91% Calm Calm -- 29.63 in1003.4 mb - 0.00 in0.0 mm 0.00 in0.0 mm
03:20 AM 42.4°F5.8°C 39.7°F4.3°C 90% Calm Calm -- 29.63 in1003.4 mb - 0.00 in0.0 mm 0.00 in0.0 mm
03:30 AM 42.1°F5.6°C 39.6°F4.2°C 91% Calm Calm -- 29.63 in1003.4 mb - 0.00 in0.0 mm 0.00 in0.0 mm
03:40 AM 41.8°F5.4°C 39.4°F4.1°C 91% Calm Calm -- 29.63 in1003.4 mb - 0.00 in0.0 mm 0.00 in0.0 mm
03:50 AM 41.7°F5.4°C 39.3°F4.1°C 91% Calm Calm -- 29.64 in1003.7 mb - 0.00 in0.0 mm 0.00 in0.0 mm
04:00 AM 41.5°F5.3°C 39.1°F3.9°C 91% Calm Calm -- 29.64 in1003.7 mb - 0.00 in0.0 mm 0.00 in0.0 mm
04:10 AM 41.4°F5.2°C 39.0°F3.9°C 91% Calm Calm -- 29.64 in1003.7 mb - 0.00 in0.0 mm 0.00 in0.0 mm
04:20 AM 41.4°F5.2°C 39.3°F4.1°C 92% Calm Calm -- 29.64 in1003.7 mb - 0.00 in0.0 mm 0.00 in0.0 mm
04:30 AM 41.4°F5.2°C 39.3°F4.1°C 92% Calm Calm -- 29.64 in1003.7 mb - 0.00 in0.0 mm 0.00 in0.0 mm
04:40 AM 41.2°F5.1°C 39.1°F3.9°C 92% Calm Calm -- 29.64 in1003.7 mb - 0.00 in0.0 mm 0.00 in0.0 mm
04:50 AM 41.1°F5.1°C 39.0°F3.9°C 92% Calm Calm 1.2 mph1.9 kmh 29.64 in1003.7 mb - 0.00 in0.0 mm 0.00 in0.0 mm
05:00 AM 41.1°F5.1°C 39.0°F3.9°C 92% Calm Calm -- 29.64 in1003.7 mb - 0.00 in0.0 mm 0.00 in0.0 mm
05:10 AM 41.3°F5.2°C 39.4°F4.1°C 93% Calm Calm -- 29.63 in1003.4 mb - 0.00 in0.0 mm 0.00 in0.0 mm
05:20 AM 41.6°F5.3°C 39.7°F4.3°C 93% Calm Calm -- 29.63 in1003.4 mb - 0.00 in0.0 mm 0.00 in0.0 mm
05:30 AM 41.8°F5.4°C 40.0°F4.4°C 93% Calm Calm -- 29.64 in1003.7 mb - 0.00 in0.0 mm 0.00 in0.0 mm
05:40 AM 42.3°F5.7°C 40.4°F4.7°C 93% Calm Calm 1.2 mph1.9 kmh 29.64 in1003.7 mb - 0.00 in0.0 mm 0.00 in0.0 mm
05:50 AM 42.6°F5.9°C 40.4°F4.7°C 92% Calm Calm -- 29.63 in1003.4 mb - 0.00 in0.0 mm 0.00 in0.0 mm
06:00 AM 42.7°F5.9°C 40.5°F4.7°C 92% Calm Calm -- 29.63 in1003.4 mb - 0.00 in0.0 mm 0.00 in0.0 mm
06:10 AM 42.7°F5.9°C 40.3°F4.6°C 91% Calm Calm -- 29.63 in1003.4 mb - 0.00 in0.0 mm 0.00 in0.0 mm
06:20 AM 42.6°F5.9°C 40.2°F4.6°C 91% Calm Calm -- 29.63 in1003.4 mb - 0.00 in0.0 mm 0.00 in0.0 mm
06:30 AM 42.6°F5.9°C 40.1°F4.5°C 91% Calm Calm -- 29.63 in1003.4 mb - 0.00 in0.0 mm 0.00 in0.0 mm
06:40 AM 42.5°F5.8°C 40.1°F4.5°C 91% Calm Calm -- 29.63 in1003.4 mb - 0.00 in0.0 mm 0.00 in0.0 mm
06:50 AM 42.3°F5.7°C 39.6°F4.2°C 90% Calm Calm 1.2 mph1.9 kmh 29.63 in1003.4 mb - 0.00 in0.0 mm 0.00 in0.0 mm
07:00 AM 42.2°F5.7°C 39.8°F4.3°C 91% Calm Calm -- 29.63 in1003.4 mb - 0.00 in0.0 mm 0.00 in0.0 mm
07:10 AM 42.1°F5.6°C 39.7°F4.3°C 91% Calm Calm -- 29.63 in1003.4 mb - 0.00 in0.0 mm 0.00 in0.0 mm
07:20 AM 41.9°F5.5°C 39.4°F4.1°C 91% Calm Calm -- 29.63 in1003.4 mb - 0.00 in0.0 mm 0.00 in0.0 mm
07:30 AM 41.6°F5.3°C 39.2°F4.0°C 91% Calm Calm -- 29.63 in1003.4 mb - 0.00 in0.0 mm 0.00 in0.0 mm
07:40 AM 41.3°F5.2°C 38.6°F3.7°C 90% Calm Calm -- 29.63 in1003.4 mb - 0.00 in0.0 mm 0.00 in0.0 mm
07:50 AM 41.0°F5.0°C 38.6°F3.7°C 91% Calm Calm -- 29.62 in1003.0 mb - 0.00 in0.0 mm 0.00 in0.0 mm
08:00 AM 40.7°F4.8°C 38.3°F3.5°C 91% Calm Calm -- 29.62 in1003.0 mb - 0.00 in0.0 mm 0.00 in0.0 mm
08:10 AM 40.5°F4.7°C 38.1°F3.4°C 91% Calm Calm -- 29.62 in1003.0 mb - 0.00 in0.0 mm 0.00 in0.0 mm
08:20 AM 40.6°F4.8°C 38.5°F3.6°C 92% Calm Calm 2.3 mph3.7 kmh 29.62 in1003.0 mb - 0.00 in0.0 mm 0.00 in0.0 mm
08:30 AM 41.0°F5.0°C 38.9°F3.8°C 92% Calm Calm -- 29.62 in1003.0 mb - 0.00 in0.0 mm 0.00 in0.0 mm
08:40 AM 41.2°F5.1°C 39.1°F3.9°C 92% Calm Calm -- 29.62 in1003.0 mb - 0.00 in0.0 mm 0.00 in0.0 mm
08:50 AM 41.3°F5.2°C 38.9°F3.8°C 91% Calm Calm -- 29.62 in1003.0 mb - 0.00 in0.0 mm 0.00 in0.0 mm
09:00 AM 41.5°F5.3°C 39.1°F3.9°C 91% Calm Calm -- 29.62 in1003.0 mb - 0.00 in0.0 mm 0.00 in0.0 mm
09:10 AM 41.7°F5.4°C 39.2°F4.0°C 91% Calm Calm 3.5 mph5.6 kmh 29.62 in1003.0 mb - 0.00 in0.0 mm 0.00 in0.0 mm
09:20 AM 42.4°F5.8°C 39.9°F4.4°C 91% Calm Calm 1.2 mph1.9 kmh 29.61 in1002.7 mb - 0.00 in0.0 mm 0.00 in0.0 mm
09:30 AM 43.5°F6.4°C 40.7°F4.8°C 90% 2.3 mph SSW3.7 kmh SSW 4.6 mph7.4 kmh 29.61 in1002.7 mb - 0.00 in0.0 mm 0.00 in0.0 mm
09:40 AM 44.5°F6.9°C 41.2°F5.1°C 88% Calm Calm 1.2 mph1.9 kmh 29.60 in1002.4 mb - 0.00 in0.0 mm 0.00 in0.0 mm
09:50 AM 45.1°F7.3°C 41.2°F5.1°C 86% Calm Calm -- 29.60 in1002.4 mb - 0.00 in0.0 mm 0.00 in0.0 mm
10:00 AM 46.6°F8.1°C 42.1°F5.6°C 84% 1.2 mph SW1.9 kmh SW 5.8 mph9.3 kmh 29.60 in1002.4 mb - 0.00 in0.0 mm 0.00 in0.0 mm
10:10 AM 47.8°F8.8°C 41.9°F5.5°C 80% 2.3 mph SSW3.7 kmh SSW 10.4 mph16.7 kmh 29.59 in1002.0 mb - 0.00 in0.0 mm 0.00 in0.0 mm
10:20 AM 48.3°F9.1°C 41.8°F5.4°C 78% 1.2 mph SW1.9 kmh SW 6.9 mph11.1 kmh 29.59 in1002.0 mb - 0.00 in0.0 mm 0.00 in0.0 mm
10:30 AM 48.1°F8.9°C 41.6°F5.3°C 78% 1.2 mph S1.9 kmh S 5.8 mph9.3 kmh 29.58 in1001.7 mb - 0.00 in0.0 mm 0.00 in0.0 mm
10:40 AM 47.5°F8.6°C 41.0°F5.0°C 78% 2.3 mph S3.7 kmh S 4.6 mph7.4 kmh 29.58 in1001.7 mb - 0.00 in0.0 mm 0.00 in0.0 mm
10:50 AM 47.0°F8.3°C 40.5°F4.7°C 78% Calm Calm 1.2 mph1.9 kmh 29.57 in1001.4 mb - 0.00 in0.0 mm 0.00 in0.0 mm
11:00 AM 46.9°F8.3°C 40.4°F4.7°C 78% Calm Calm -- 29.57 in1001.4 mb - 0.00 in0.0 mm 0.00 in0.0 mm
11:10 AM 47.0°F8.3°C 40.5°F4.7°C 78% 1.2 mph S1.9 kmh S 3.5 mph5.6 kmh 29.56 in1001.0 mb - 0.00 in0.0 mm 0.00 in0.0 mm
11:20 AM 47.2°F8.4°C 40.7°F4.8°C 78% Calm Calm 1.2 mph1.9 kmh 29.55 in1000.7 mb - 0.00 in0.0 mm 0.00 in0.0 mm
11:30 AM 48.0°F8.9°C 41.1°F5.1°C 77% 2.3 mph S3.7 kmh S 6.9 mph11.1 kmh 29.55 in1000.7 mb - 0.00 in0.0 mm 0.00 in0.0 mm
11:40 AM 48.5°F9.2°C 41.0°F5.0°C 75% 2.3 mph S3.7 kmh S 3.5 mph5.6 kmh 29.54 in1000.3 mb - 0.00 in0.0 mm 0.00 in0.0 mm
11:50 AM 48.9°F9.4°C 40.6°F4.8°C 73% 4.6 mph SW7.4 kmh SW 8.1 mph13.0 kmh 29.53 in1000.0 mb - 0.00 in0.0 mm 0.00 in0.0 mm
12:00 PM 48.8°F9.3°C 40.5°F4.7°C 73% 4.6 mph S7.4 kmh S 6.9 mph11.1 kmh 29.52 in999.7 mb - 0.00 in0.0 mm 0.00 in0.0 mm
12:10 PM 48.6°F9.2°C 40.7°F4.8°C 74% Calm Calm 1.2 mph1.9 kmh 29.52 in999.7 mb - 0.00 in0.0 mm 0.00 in0.0 mm
12:20 PM 48.3°F9.1°C 40.4°F4.7°C 74% Calm Calm 5.8 mph9.3 kmh 29.52 in999.7 mb - 0.00 in0.0 mm 0.00 in0.0 mm
12:30 PM 48.2°F9.0°C 41.0°F5.0°C 76% Calm Calm 3.5 mph5.6 kmh 29.51 in999.3 mb - 0.00 in0.0 mm 0.00 in0.0 mm
12:40 PM 48.1°F8.9°C 41.2°F5.1°C 77% 1.2 mph S1.9 kmh S 11.5 mph18.5 kmh 29.50 in999.0 mb - 0.00 in0.0 mm 0.00 in0.0 mm
12:50 PM 48.2°F9.0°C 41.3°F5.2°C 77% Calm Calm 4.6 mph7.4 kmh 29.50 in999.0 mb - 0.00 in0.0 mm 0.00 in0.0 mm
01:00 PM 48.1°F8.9°C 41.2°F5.1°C 77% 2.3 mph S3.7 kmh S 6.9 mph11.1 kmh 29.49 in998.6 mb - 0.00 in0.0 mm 0.00 in0.0 mm
01:10 PM 48.0°F8.9°C 41.1°F5.1°C 77% Calm Calm -- 29.48 in998.3 mb - 0.00 in0.0 mm 0.00 in0.0 mm
01:20 PM 48.1°F8.9°C 41.2°F5.1°C 77% Calm Calm -- 29.47 in998.0 mb - 0.00 in0.0 mm 0.00 in0.0 mm
01:40 PM 48.1°F8.9°C 41.2°F5.1°C 77% Calm Calm -- 29.46 in997.6 mb - 0.00 in0.0 mm 0.00 in0.0 mm
01:50 PM 48.3°F9.1°C 41.4°F5.2°C 77% 1.2 mph SSE1.9 kmh SSE 9.2 mph14.8 kmh 29.44 in997.0 mb - 0.00 in0.0 mm 0.00 in0.0 mm
02:00 PM 48.0°F8.9°C 42.1°F5.6°C 80% 9.2 mph S14.8 kmh S 12.7 mph20.4 kmh 29.44 in997.0 mb - 0.01 in0.3 mm 0.01 in0.3 mm
02:10 PM 47.0°F8.3°C 42.4°F5.8°C 84% 5.8 mph SSE9.3 kmh SSE 8.1 mph13.0 kmh 29.43 in996.6 mb - 0.00 in0.0 mm 0.01 in0.3 mm
02:20 PM 46.5°F8.1°C 42.5°F5.8°C 86% 3.5 mph SE5.6 kmh SE 4.6 mph7.4 kmh 29.41 in995.9 mb - 0.00 in0.0 mm 0.01 in0.3 mm
02:40 PM 45.8°F7.7°C 41.9°F5.5°C 86% 1.2 mph SSE1.9 kmh SSE 3.5 mph5.6 kmh 29.40 in995.6 mb - 0.00 in0.0 mm 0.01 in0.3 mm
02:50 PM 45.6°F7.6°C 41.7°F5.4°C 86% 2.3 mph SE3.7 kmh SE 4.6 mph7.4 kmh 29.39 in995.3 mb - 0.00 in0.0 mm 0.01 in0.3 mm
03:10 PM 45.4°F7.4°C 41.2°F5.1°C 85% 5.8 mph SE9.3 kmh SE 8.1 mph13.0 kmh 29.36 in994.2 mb - 0.00 in0.0 mm 0.01 in0.3 mm
03:30 PM 45.4°F7.4°C 41.2°F5.1°C 85% 2.3 mph ESE3.7 kmh ESE 9.2 mph14.8 kmh 29.34 in993.6 mb - 0.00 in0.0 mm 0.01 in0.3 mm
03:40 PM 45.6°F7.6°C 41.7°F5.4°C 86% 3.5 mph ESE5.6 kmh ESE 8.1 mph13.0 kmh 29.33 in993.2 mb - 0.01 in0.3 mm 0.02 in0.5 mm
03:50 PM 45.4°F7.4°C 41.8°F5.4°C 87% 8.1 mph SE13.0 kmh SE 12.7 mph20.4 kmh 29.32 in992.9 mb - 0.00 in0.0 mm 0.02 in0.5 mm
04:00 PM 45.2°F7.3°C 41.9°F5.5°C 88% Calm Calm 1.2 mph1.9 kmh 29.31 in992.6 mb - 0.00 in0.0 mm 0.02 in0.5 mm
04:10 PM 45.1°F7.3°C 42.1°F5.6°C 89% 3.5 mph SE5.6 kmh SE 5.8 mph9.3 kmh 29.30 in992.2 mb - 0.00 in0.0 mm 0.02 in0.5 mm
04:20 PM 45.0°F7.2°C 42.2°F5.7°C 90% Calm Calm -- 29.29 in991.9 mb - 0.01 in0.3 mm 0.02 in0.5 mm
04:30 PM 45.0°F7.2°C 42.2°F5.7°C 90% Calm Calm -- 29.28 in991.5 mb - 0.02 in0.5 mm 0.04 in1.0 mm
04:40 PM 44.9°F7.2°C 42.4°F5.8°C 91% 4.6 mph SE7.4 kmh SE 9.2 mph14.8 kmh 29.28 in991.5 mb - 0.02 in0.5 mm 0.06 in1.5 mm
04:50 PM 45.1°F7.3°C 42.9°F6.1°C 92% 8.1 mph SE13.0 kmh SE 13.8 mph22.2 kmh 29.27 in991.2 mb - 0.01 in0.3 mm 0.06 in1.5 mm
05:00 PM 45.1°F7.3°C 42.9°F6.1°C 92% 1.2 mph ESE1.9 kmh ESE 1.2 mph1.9 kmh 29.25 in990.5 mb - 0.01 in0.3 mm 0.07 in1.8 mm
05:10 PM 45.1°F7.3°C 42.9°F6.1°C 92% Calm Calm 6.9 mph11.1 kmh 29.25 in990.5 mb - 0.00 in0.0 mm 0.07 in1.8 mm
05:20 PM 45.2°F7.3°C 43.3°F6.3°C 93% 4.6 mph SE7.4 kmh SE 5.8 mph9.3 kmh 29.24 in990.2 mb - 0.00 in0.0 mm 0.07 in1.8 mm
05:30 PM 45.3°F7.4°C 43.4°F6.3°C 93% 9.2 mph SE14.8 kmh SE 12.7 mph20.4 kmh 29.24 in990.2 mb - 0.01 in0.3 mm 0.08 in2.0 mm
05:40 PM 45.1°F7.3°C 42.9°F6.1°C 92% 4.6 mph SE7.4 kmh SE 5.8 mph9.3 kmh 29.23 in989.8 mb - 0.02 in0.5 mm 0.10 in2.5 mm
05:50 PM 44.8°F7.1°C 42.6°F5.9°C 92% Calm Calm -- 29.22 in989.5 mb - 0.02 in0.5 mm 0.12 in3.0 mm
06:00 PM 43.9°F6.6°C 41.8°F5.4°C 92% 8.1 mph S13.0 kmh S 12.7 mph20.4 kmh 29.22 in989.5 mb - 0.05 in1.3 mm 0.16 in4.1 mm
06:10 PM 43.1°F6.2°C 40.9°F4.9°C 92% 2.3 mph S3.7 kmh S 6.9 mph11.1 kmh 29.22 in989.5 mb - 0.02 in0.5 mm 0.17 in4.3 mm
06:20 PM 42.6°F5.9°C 40.4°F4.7°C 92% 3.5 mph S5.6 kmh S 6.9 mph11.1 kmh 29.21 in989.2 mb - 0.06 in1.5 mm 0.23 in5.8 mm
06:30 PM 42.2°F5.7°C 40.3°F4.6°C 93% 6.9 mph SSE11.1 kmh SSE 11.5 mph18.5 kmh 29.20 in988.8 mb - 0.05 in1.3 mm 0.28 in7.1 mm
06:40 PM 42.1°F5.6°C 40.5°F4.7°C 94% 6.9 mph S11.1 kmh S 11.5 mph18.5 kmh 29.20 in988.8 mb - 0.04 in1.0 mm 0.31 in7.9 mm
06:50 PM 42.0°F5.6°C 40.4°F4.7°C 94% 2.3 mph S3.7 kmh S 9.2 mph14.8 kmh 29.20 in988.8 mb - 0.02 in0.5 mm 0.32 in8.1 mm
07:00 PM 41.9°F5.5°C 40.3°F4.6°C 94% 5.8 mph S9.3 kmh S 11.5 mph18.5 kmh 29.21 in989.2 mb - 0.01 in0.3 mm 0.33 in8.4 mm
07:10 PM 41.4°F5.2°C 39.8°F4.3°C 94% 5.8 mph SSW9.3 kmh SSW 9.2 mph14.8 kmh 29.21 in989.2 mb - 0.00 in0.0 mm 0.33 in8.4 mm
07:20 PM 40.9°F4.9°C 39.3°F4.1°C 94% 1.2 mph SW1.9 kmh SW 3.5 mph5.6 kmh 29.20 in988.8 mb - 0.00 in0.0 mm 0.33 in8.4 mm
07:30 PM 40.6°F4.8°C 39.0°F3.9°C 94% 1.2 mph SW1.9 kmh SW 5.8 mph9.3 kmh 29.20 in988.8 mb - 0.00 in0.0 mm 0.33 in8.4 mm
07:40 PM 40.2°F4.6°C 38.6°F3.7°C 94% Calm Calm 1.2 mph1.9 kmh 29.20 in988.8 mb - 0.00 in0.0 mm 0.33 in8.4 mm
07:50 PM 40.0°F4.4°C 38.4°F3.6°C 94% Calm Calm -- 29.20 in988.8 mb - 0.00 in0.0 mm 0.33 in8.4 mm
08:00 PM 39.9°F4.4°C 38.3°F3.5°C 94% Calm Calm 3.5 mph5.6 kmh 29.20 in988.8 mb - 0.00 in0.0 mm 0.33 in8.4 mm
08:10 PM 39.8°F4.3°C 38.2°F3.4°C 94% Calm Calm 1.2 mph1.9 kmh 29.19 in988.5 mb - 0.00 in0.0 mm 0.33 in8.4 mm
08:20 PM 39.7°F4.3°C 38.1°F3.4°C 94% 2.3 mph S3.7 kmh S 4.6 mph7.4 kmh 29.19 in988.5 mb - 0.00 in0.0 mm 0.33 in8.4 mm
08:30 PM 39.6°F4.2°C 38.0°F3.3°C 94% 1.2 mph SSW1.9 kmh SSW 3.5 mph5.6 kmh 29.19 in988.5 mb - 0.00 in0.0 mm 0.33 in8.4 mm
08:40 PM 39.4°F4.1°C 37.8°F3.2°C 94% Calm Calm 2.3 mph3.7 kmh 29.20 in988.8 mb - 0.00 in0.0 mm 0.33 in8.4 mm
08:50 PM 39.2°F4.0°C 37.7°F3.2°C 94% Calm Calm 3.5 mph5.6 kmh 29.20 in988.8 mb - 0.00 in0.0 mm 0.33 in8.4 mm
09:00 PM 39.2°F4.0°C 37.6°F3.1°C 94% Calm Calm 2.3 mph3.7 kmh 29.21 in989.2 mb - 0.00 in0.0 mm 0.33 in8.4 mm
09:10 PM 39.1°F3.9°C 37.5°F3.1°C 94% Calm Calm -- 29.20 in988.8 mb - 0.00 in0.0 mm 0.33 in8.4 mm
09:20 PM 38.9°F3.8°C 37.3°F2.9°C 94% 1.2 mph SW1.9 kmh SW 3.5 mph5.6 kmh 29.20 in988.8 mb - 0.00 in0.0 mm 0.33 in8.4 mm
09:30 PM 38.7°F3.7°C 37.1°F2.8°C 94% Calm Calm -- 29.20 in988.8 mb - 0.00 in0.0 mm 0.33 in8.4 mm
09:40 PM 38.5°F3.6°C 36.9°F2.7°C 94% Calm Calm 2.3 mph3.7 kmh 29.20 in988.8 mb - 0.00 in0.0 mm 0.33 in8.4 mm
09:50 PM 38.2°F3.4°C 36.6°F2.6°C 94% Calm Calm -- 29.20 in988.8 mb - 0.00 in0.0 mm 0.33 in8.4 mm
10:00 PM 38.0°F3.3°C 36.4°F2.4°C 94% 1.2 mph SW1.9 kmh SW 3.5 mph5.6 kmh 29.19 in988.5 mb - 0.00 in0.0 mm 0.33 in8.4 mm
10:10 PM 37.8°F3.2°C 36.2°F2.3°C 94% 1.2 mph SW1.9 kmh SW 2.3 mph3.7 kmh 29.19 in988.5 mb - 0.00 in0.0 mm 0.33 in8.4 mm
10:20 PM 37.5°F3.1°C 35.9°F2.2°C 94% Calm Calm -- 29.19 in988.5 mb - 0.00 in0.0 mm 0.33 in8.4 mm
10:30 PM 37.1°F2.8°C 35.5°F1.9°C 94% 1.2 mph SW1.9 kmh SW 2.3 mph3.7 kmh 29.19 in988.5 mb - 0.00 in0.0 mm 0.33 in8.4 mm
10:40 PM 36.8°F2.7°C 35.3°F1.8°C 94% Calm Calm -- 29.19 in988.5 mb - 0.00 in0.0 mm 0.33 in8.4 mm
10:50 PM 36.6°F2.6°C 35.0°F1.7°C 94% Calm Calm -- 29.19 in988.5 mb - 0.00 in0.0 mm 0.33 in8.4 mm
11:00 PM 36.2°F2.3°C 34.6°F1.4°C 94% Calm Calm -- 29.19 in988.5 mb - 0.00 in0.0 mm 0.33 in8.4 mm
11:10 PM 36.0°F2.2°C 34.4°F1.3°C 94% Calm Calm -- 29.19 in988.5 mb - 0.00 in0.0 mm 0.33 in8.4 mm
11:20 PM 35.7°F2.1°C 34.1°F1.2°C 94% Calm Calm -- 29.19 in988.5 mb - 0.00 in0.0 mm 0.33 in8.4 mm
11:30 PM 35.6°F2.0°C 34.3°F1.3°C 95% Calm Calm -- 29.20 in988.8 mb - 0.00 in0.0 mm 0.33 in8.4 mm
11:40 PM 35.6°F2.0°C 34.3°F1.3°C 95% Calm Calm -- 29.19 in988.5 mb - 0.00 in0.0 mm 0.33 in8.4 mm
11:50 PM 35.5°F1.9°C 34.2°F1.2°C 95% Calm Calm -- 29.19 in988.5 mb - 0.00 in0.0 mm 0.33 in8.4 mm